ESFO2: Salt Fork Red River nr Elmer, OK

Data processed at Wed May 22 2019 23:50


All information presented herein is the property of the government of the United States of America and may be revised or deleted at any time without prior notice.
Dissemination of this information without the expressed written consent of the Public Affairs Office, Tulsa District U.S. Army Corps of Engineers is strictly prohibited.
These data are gathered electronically and, as presented, have not undergone any form of quality control. These data are not guaranteed to be valid or correct.
Go to home page.
Go to station list.
Go to home page.

Upstream stations:

Downstream station:
Previous Day
Next Day
Current Day
    
SHEF ID:       ESFO2     Salt Fork Red River near Elmer,
STATION TYPE:  
Regulating: Stage =    14.00, Flow =     4957

                STAGE  RIV-FLOW  BAT-LOAD
                   ft       cfs      volt
              Ccp-Rev   Ccp-Rev   Ccp-Rev
(US/Central)
05/22 00:00      7.64       234     12.65
05/22 01:00      7.69       244     12.65
05/22 02:00      7.79       264     12.65
05/22 03:00      7.91       290     12.65
05/22 04:00      8.02       316     12.65
05/22 05:00      8.09       333     12.65
05/22 06:00      8.17       353     12.57
05/22 07:00      8.22       366     12.57
05/22 08:00      8.30       388     12.57
05/22 09:00      8.33       396     12.65
05/22 10:00      8.37       408     12.97
05/22 11:00      8.38       411     12.89
05/22 12:00      8.38       411     13.21
05/22 13:00      8.40       416     13.13
05/22 14:00      8.40       416     13.05
05/22 15:00      8.39       413     12.97
05/22 16:00      8.37       408     12.89
05/22 17:00      8.33       396     12.81
05/22 18:00      8.31       391     12.81
05/22 19:00      8.31       391     12.81
05/22 20:00      8.34       399     12.73
05/22 21:00      8.35       402     12.73
05/22 22:00      8.41       419     12.73
05/22 23:00      8.47       437     12.65